Time,TemperatureF,DewpointF,PressureIn,WindDirection,WindDirectionDegrees,WindSpeedMPH,WindSpeedGustMPH,Humidity,HourlyPrecipIn,Conditions,Clouds,dailyrainin,SoftwareType,DateUTC
2013-01-01 00:03:00,40.0,27.0,29.96,WNW,286,0.0,0.0,59,0.00,,,0.00,,2013-01-01 05:03:00,
2013-01-01 00:12:00,40.0,27.0,29.96,WNW,286,0.0,0.0,59,0.00,,,0.00,,2013-01-01 05:12:00,
2013-01-01 00:22:00,40.0,26.0,29.95,SSE,159,0.0,1.0,58,0.00,,,0.00,,2013-01-01 05:22:00,
2013-01-01 00:33:00,40.0,26.0,29.94,NW,310,0.0,2.0,57,0.00,,,0.00,,2013-01-01 05:33:00,
2013-01-01 00:42:00,40.0,26.0,29.94,NW,310,0.0,2.0,57,0.00,,,0.00,,2013-01-01 05:42:00,
2013-01-01 00:53:00,39.0,25.0,29.93,NW,317,0.0,1.0,58,0.00,,,0.00,,2013-01-01 05:53:00,
2013-01-01 01:02:00,39.0,25.0,29.94,NW,315,0.0,0.0,58,0.00,,,0.00,,2013-01-01 06:02:00,
2013-01-01 01:12:00,39.0,25.0,29.94,NW,315,0.0,0.0,58,0.00,,,0.00,,2013-01-01 06:12:00,
2013-01-01 01:22:00,39.0,25.0,29.94,WNW,297,0.0,2.0,58,0.00,,,0.00,,2013-01-01 06:22:00,
2013-01-01 01:32:00,39.0,25.0,29.94,WSW,248,0.0,1.0,57,0.00,,,0.00,,2013-01-01 06:32:00,
2013-01-01 01:42:00,39.0,25.0,29.94,WSW,248,0.0,1.0,57,0.00,,,0.00,,2013-01-01 06:42:00,
2013-01-01 01:52:00,39.0,25.0,29.93,WNW,284,0.0,1.0,57,0.00,,,0.00,,2013-01-01 06:52:00,
2013-01-01 02:02:00,39.0,25.0,29.94,WNW,282,0.0,2.0,57,0.00,,,0.00,,2013-01-01 07:02:00,
2013-01-01 02:12:00,39.0,25.0,29.94,West,268,0.0,1.0,58,0.00,,,0.00,,2013-01-01 07:12:00,
2013-01-01 02:22:00,39.0,25.0,29.94,West,268,0.0,1.0,58,0.00,,,0.00,,2013-01-01 07:22:00,
2013-01-01 02:32:00,39.0,26.0,29.95,West,268,0.0,0.0,59,0.00,,,0.00,,2013-01-01 07:32:00,
2013-01-01 02:42:00,39.0,26.0,29.95,West,268,0.0,0.0,59,0.00,,,0.00,,2013-01-01 07:42:00,
2013-01-01 02:53:00,39.0,27.0,29.96,West,268,0.0,0.0,61,0.00,,,0.00,,2013-01-01 07:53:00,
2013-01-01 03:02:00,38.0,27.0,29.94,West,268,0.0,0.0,63,0.00,,,0.00,,2013-01-01 08:02:00,
2013-01-01 03:12:00,38.0,27.0,29.94,West,268,0.0,0.0,63,0.00,,,0.00,,2013-01-01 08:12:00,
2013-01-01 03:22:00,38.0,26.0,29.94,West,268,0.0,0.0,62,0.00,,,0.00,,2013-01-01 08:22:00,
2013-01-01 03:32:00,37.0,25.0,29.93,West,268,0.0,0.0,62,0.00,,,0.00,,2013-01-01 08:32:00,
2013-01-01 03:42:00,37.0,26.0,29.94,West,268,0.0,0.0,65,0.00,,,0.00,,2013-01-01 08:42:00,
2013-01-01 03:53:00,37.0,26.0,29.94,West,268,0.0,0.0,65,0.00,,,0.00,,2013-01-01 08:53:00,
2013-01-01 04:02:00,36.0,25.0,29.94,West,268,0.0,0.0,65,0.00,,,0.00,,2013-01-01 09:02:00,
2013-01-01 04:12:00,36.0,25.0,29.94,West,268,0.0,0.0,65,0.00,,,0.00,,2013-01-01 09:12:00,
2013-01-01 04:22:00,36.0,26.0,29.93,West,268,0.0,0.0,67,0.00,,,0.00,,2013-01-01 09:22:00,
2013-01-01 04:32:00,35.0,25.0,29.93,West,268,0.0,0.0,67,0.00,,,0.00,,2013-01-01 09:32:00,
2013-01-01 04:42:00,35.0,25.0,29.93,West,268,0.0,0.0,67,0.00,,,0.00,,2013-01-01 09:42:00,
2013-01-01 04:52:00,35.0,26.0,29.92,West,268,0.0,0.0,69,0.00,,,0.00,,2013-01-01 09:52:00,
2013-01-01 05:02:00,35.0,26.0,29.92,West,268,0.0,0.0,70,0.00,,,0.00,,2013-01-01 10:02:00,
2013-01-01 05:12:00,35.0,27.0,29.91,West,268,0.0,0.0,72,0.00,,,0.00,,2013-01-01 10:12:00,
2013-01-01 05:22:00,35.0,27.0,29.91,West,268,0.0,0.0,72,0.00,,,0.00,,2013-01-01 10:22:00,
2013-01-01 05:33:00,35.0,27.0,29.92,West,268,0.0,0.0,73,0.00,,,0.00,,2013-01-01 10:33:00,
2013-01-01 05:42:00,35.0,27.0,29.92,West,268,0.0,0.0,73,0.00,,,0.00,,2013-01-01 10:42:00,
2013-01-01 05:53:00,35.0,27.0,29.94,West,268,0.0,0.0,73,0.00,,,0.00,,2013-01-01 10:53:00,
2013-01-01 06:02:00,35.0,27.0,29.93,West,268,0.0,0.0,73,0.00,,,0.00,,2013-01-01 11:02:00,
2013-01-01 06:12:00,35.0,27.0,29.93,West,268,0.0,0.0,73,0.00,,,0.00,,2013-01-01 11:12:00,
2013-01-01 06:23:00,35.0,28.0,29.92,West,268,0.0,0.0,74,0.00,,,0.00,,2013-01-01 11:23:00,
2013-01-01 06:33:00,36.0,28.0,29.93,West,268,0.0,0.0,73,0.00,,,0.00,,2013-01-01 11:33:00,
2013-01-01 06:43:00,36.0,28.0,29.93,West,268,0.0,0.0,73,0.00,,,0.00,,2013-01-01 11:43:00,
2013-01-01 06:53:00,36.0,28.0,29.94,West,268,0.0,0.0,73,0.00,,,0.00,,2013-01-01 11:53:00,
2013-01-01 07:03:00,36.0,28.0,29.93,West,268,0.0,0.0,73,0.00,,,0.00,,2013-01-01 12:03:00,
2013-01-01 07:12:00,36.0,28.0,29.93,West,268,0.0,0.0,73,0.00,,,0.00,,2013-01-01 12:12:00,
2013-01-01 07:22:00,36.0,28.0,29.94,West,268,0.0,0.0,72,0.00,,,0.00,,2013-01-01 12:22:00,
2013-01-01 07:33:00,36.0,28.0,29.92,West,268,0.0,0.0,73,0.00,,,0.00,,2013-01-01 12:33:00,
2013-01-01 07:43:00,36.0,28.0,29.92,West,268,0.0,0.0,73,0.00,,,0.00,,2013-01-01 12:43:00,
2013-01-01 07:53:00,36.0,28.0,29.93,West,268,0.0,0.0,72,0.00,,,0.00,,2013-01-01 12:53:00,
2013-01-01 08:03:00,36.0,28.0,29.92,West,268,0.0,0.0,72,0.00,,,0.00,,2013-01-01 13:03:00,
2013-01-01 08:12:00,36.0,28.0,29.92,West,268,0.0,0.0,72,0.00,,,0.00,,2013-01-01 13:12:00,
2013-01-01 08:22:00,36.0,28.0,29.93,West,268,0.0,0.0,72,0.00,,,0.00,,2013-01-01 13:22:00,
2013-01-01 08:33:00,36.0,29.0,29.93,West,268,0.0,0.0,74,0.00,,,0.00,,2013-01-01 13:33:00,
2013-01-01 08:43:00,36.0,29.0,29.93,West,268,0.0,0.0,74,0.00,,,0.00,,2013-01-01 13:43:00,
2013-01-01 08:53:00,36.0,29.0,29.94,West,268,0.0,0.0,76,0.00,,,0.00,,2013-01-01 13:53:00,
2013-01-01 09:02:00,36.0,29.0,29.92,West,268,0.0,0.0,76,0.00,,,0.00,,2013-01-01 14:02:00,
2013-01-01 09:12:00,36.0,29.0,29.92,West,268,0.0,0.0,76,0.00,,,0.00,,2013-01-01 14:12:00,
2013-01-01 09:22:00,36.0,29.0,29.93,West,268,0.0,0.0,76,0.00,,,0.00,,2013-01-01 14:22:00,
2013-01-01 09:32:00,37.0,30.0,29.94,West,268,0.0,0.0,76,0.00,,,0.00,,2013-01-01 14:32:00,
2013-01-01 09:42:00,37.0,30.0,29.94,West,268,0.0,0.0,76,0.00,,,0.00,,2013-01-01 14:42:00,
2013-01-01 09:53:00,37.0,30.0,29.94,West,268,0.0,0.0,77,0.00,,,0.00,,2013-01-01 14:53:00,
2013-01-01 10:03:00,37.0,30.0,29.94,West,277,0.0,1.0,75,0.00,,,0.00,,2013-01-01 15:03:00,
2013-01-01 10:12:00,37.0,30.0,29.94,West,277,0.0,1.0,75,0.00,,,0.00,,2013-01-01 15:12:00,
2013-01-01 10:22:00,38.0,30.0,29.94,West,277,0.0,0.0,73,0.00,,,0.00,,2013-01-01 15:22:00,
2013-01-01 10:33:00,39.0,31.0,29.95,West,277,0.0,0.0,72,0.00,,,0.00,,2013-01-01 15:33:00,
2013-01-01 10:42:00,39.0,31.0,29.95,West,277,0.0,0.0,72,0.00,,,0.00,,2013-01-01 15:42:00,
2013-01-01 10:53:00,39.0,31.0,29.93,West,276,0.0,0.0,72,0.00,,,0.00,,2013-01-01 15:53:00,
2013-01-01 11:02:00,40.0,32.0,29.94,West,276,0.0,0.0,73,0.00,,,0.00,,2013-01-01 16:02:00,
2013-01-01 11:12:00,40.0,32.0,29.94,West,276,0.0,0.0,73,0.00,,,0.00,,2013-01-01 16:12:00,
2013-01-01 11:22:00,40.0,31.0,29.94,NNW,329,0.0,0.0,70,0.00,,,0.00,,2013-01-01 16:22:00,
2013-01-01 11:33:00,40.0,31.0,29.94,NNW,332,0.0,1.0,70,0.00,,,0.00,,2013-01-01 16:33:00,
2013-01-01 11:43:00,40.0,31.0,29.94,NNW,332,0.0,1.0,70,0.00,,,0.00,,2013-01-01 16:43:00,
2013-01-01 11:53:00,41.0,32.0,29.92,NNW,348,0.0,2.0,70,0.00,,,0.00,,2013-01-01 16:53:00,
2013-01-01 12:02:00,41.0,32.0,29.91,North,353,0.0,1.0,69,0.00,,,0.00,,2013-01-01 17:02:00,
2013-01-01 12:12:00,41.0,32.0,29.91,North,353,0.0,1.0,69,0.00,,,0.00,,2013-01-01 17:12:00,
2013-01-01 12:22:00,41.0,32.0,29.91,NNW,333,0.0,3.0,70,0.00,,,0.00,,2013-01-01 17:22:00,
2013-01-01 12:33:00,42.0,33.0,29.91,North,351,0.0,2.0,70,0.00,,,0.00,,2013-01-01 17:33:00,
2013-01-01 12:43:00,42.0,33.0,29.91,North,351,0.0,2.0,70,0.00,,,0.00,,2013-01-01 17:43:00,
2013-01-01 12:53:00,42.0,33.0,29.91,NNE,22,1.0,5.0,69,0.00,,,0.00,,2013-01-01 17:53:00,
2013-01-01 13:03:00,42.0,32.0,29.88,North,359,1.0,2.0,68,0.00,,,0.00,,2013-01-01 18:03:00,
2013-01-01 13:13:00,42.0,32.0,29.88,North,359,1.0,2.0,68,0.00,,,0.00,,2013-01-01 18:13:00,
2013-01-01 13:23:00,43.0,34.0,29.87,NNW,333,0.0,1.0,69,0.00,,,0.00,,2013-01-01 18:23:00,
2013-01-01 13:33:00,43.0,33.0,29.88,North,11,0.0,2.0,68,0.00,,,0.00,,2013-01-01 18:33:00,
2013-01-01 13:43:00,43.0,33.0,29.88,North,11,0.0,2.0,68,0.00,,,0.00,,2013-01-01 18:43:00,
2013-01-01 13:53:00,43.0,33.0,29.88,North,11,0.0,2.0,68,0.00,,,0.00,,2013-01-01 18:53:00,
2013-01-01 14:02:00,43.0,34.0,29.86,North,11,0.0,0.0,69,0.00,,,0.00,,2013-01-01 19:02:00,
2013-01-01 14:12:00,43.0,34.0,29.86,North,11,0.0,0.0,69,0.00,,,0.00,,2013-01-01 19:12:00,
2013-01-01 14:22:00,43.0,34.0,29.86,North,11,0.0,1.0,69,0.00,,,0.00,,2013-01-01 19:22:00,
2013-01-01 14:33:00,43.0,34.0,29.88,NNE,30,0.0,4.0,69,0.00,,,0.00,,2013-01-01 19:33:00,
2013-01-01 14:42:00,43.0,34.0,29.88,NNE,30,0.0,4.0,69,0.00,,,0.00,,2013-01-01 19:42:00,
2013-01-01 14:53:00,43.0,33.0,29.87,NNW,334,0.0,3.0,68,0.00,,,0.00,,2013-01-01 19:53:00,
2013-01-01 15:02:00,43.0,34.0,29.88,NNW,338,0.0,0.0,69,0.00,,,0.00,,2013-01-01 20:02:00,
2013-01-01 15:12:00,43.0,34.0,29.88,NNW,338,0.0,0.0,69,0.00,,,0.00,,2013-01-01 20:12:00,
2013-01-01 15:23:00,43.0,34.0,29.88,NNW,333,0.0,2.0,69,0.00,,,0.00,,2013-01-01 20:23:00,
2013-01-01 15:32:00,43.0,34.0,29.89,NNW,338,0.0,2.0,69,0.00,,,0.00,,2013-01-01 20:32:00,
2013-01-01 15:42:00,43.0,34.0,29.89,NNW,338,0.0,2.0,69,0.00,,,0.00,,2013-01-01 20:42:00,
2013-01-01 15:53:00,43.0,33.0,29.89,NNW,338,0.0,1.0,68,0.00,,,0.00,,2013-01-01 20:53:00,
2013-01-01 16:03:00,43.0,33.0,29.88,NNW,338,0.0,2.0,68,0.00,,,0.00,,2013-01-01 21:03:00,
2013-01-01 16:13:00,43.0,34.0,29.89,NNW,338,0.0,0.0,69,0.00,,,0.00,,2013-01-01 21:13:00,
2013-01-01 16:22:00,43.0,34.0,29.89,NNW,338,0.0,0.0,69,0.00,,,0.00,,2013-01-01 21:22:00,
2013-01-01 16:33:00,42.0,33.0,29.89,NNW,338,0.0,1.0,69,0.00,,,0.00,,2013-01-01 21:33:00,
2013-01-01 16:42:00,42.0,33.0,29.89,NNW,338,0.0,1.0,69,0.00,,,0.00,,2013-01-01 21:42:00,
2013-01-01 16:53:00,42.0,33.0,29.91,NNW,338,0.0,0.0,70,0.00,,,0.00,,2013-01-01 21:53:00,
2013-01-01 17:03:00,42.0,33.0,29.91,NW,321,0.0,1.0,71,0.00,,,0.00,,2013-01-01 22:03:00,
2013-01-01 17:12:00,42.0,33.0,29.91,NW,321,0.0,1.0,71,0.00,,,0.00,,2013-01-01 22:12:00,
2013-01-01 17:22:00,42.0,33.0,29.91,NW,321,0.0,0.0,71,0.00,,,0.00,,2013-01-01 22:22:00,
2013-01-01 17:33:00,41.0,32.0,29.91,NW,313,0.0,1.0,71,0.00,,,0.00,,2013-01-01 22:33:00,
2013-01-01 17:42:00,41.0,32.0,29.91,NW,313,0.0,1.0,71,0.00,,,0.00,,2013-01-01 22:42:00,
2013-01-01 17:53:00,41.0,32.0,29.92,NW,313,0.0,0.0,71,0.00,,,0.00,,2013-01-01 22:53:00,
2013-01-01 18:03:00,41.0,34.0,29.92,North,9,0.0,1.0,75,0.00,,,0.00,,2013-01-01 23:03:00,
2013-01-01 18:12:00,41.0,34.0,29.92,North,9,0.0,1.0,75,0.00,,,0.00,,2013-01-01 23:12:00,
2013-01-01 18:22:00,41.0,32.0,29.92,North,7,0.0,3.0,71,0.00,,,0.00,,2013-01-01 23:22:00,
2013-01-01 18:32:00,41.0,32.0,29.93,North,7,0.0,1.0,71,0.00,,,0.00,,2013-01-01 23:32:00,
2013-01-01 18:42:00,41.0,32.0,29.93,North,7,0.0,1.0,71,0.00,,,0.00,,2013-01-01 23:42:00,
2013-01-01 18:53:00,41.0,32.0,29.93,North,7,0.0,1.0,71,0.00,,,0.00,,2013-01-01 23:53:00,
2013-01-01 19:03:00,41.0,32.0,29.92,WNW,284,0.0,0.0,71,0.00,,,0.00,,2013-01-02 00:03:00,
2013-01-01 19:12:00,41.0,32.0,29.92,WNW,284,0.0,0.0,71,0.00,,,0.00,,2013-01-02 00:12:00,
2013-01-01 19:22:00,40.0,31.0,29.94,WNW,285,0.0,0.0,71,0.00,,,0.00,,2013-01-02 00:22:00,
2013-01-01 19:32:00,40.0,31.0,29.95,WNW,292,0.0,1.0,71,0.00,,,0.00,,2013-01-02 00:32:00,
2013-01-01 19:42:00,40.0,31.0,29.95,WNW,292,0.0,1.0,71,0.00,,,0.00,,2013-01-02 00:42:00,
2013-01-01 19:53:00,40.0,31.0,29.95,NNE,14,0.0,4.0,71,0.00,,,0.00,,2013-01-02 00:53:00,
2013-01-01 20:02:00,40.0,31.0,29.94,NNE,18,0.0,4.0,71,0.00,,,0.00,,2013-01-02 01:02:00,
2013-01-01 20:12:00,40.0,31.0,29.94,NNE,18,0.0,4.0,71,0.00,,,0.00,,2013-01-02 01:12:00,
2013-01-01 20:22:00,40.0,32.0,29.94,NNE,14,0.0,4.0,72,0.00,,,0.00,,2013-01-02 01:22:00,
2013-01-01 20:32:00,40.0,32.0,29.93,NNE,28,0.0,2.0,72,0.00,,,0.00,,2013-01-02 01:32:00,
2013-01-01 20:42:00,40.0,32.0,29.93,NNE,28,0.0,2.0,72,0.00,,,0.00,,2013-01-02 01:42:00,
2013-01-01 20:52:00,40.0,32.0,29.95,NNW,346,1.0,4.0,72,0.00,,,0.00,,2013-01-02 01:52:00,
2013-01-01 21:02:00,40.0,32.0,29.94,NNE,15,0.0,6.0,72,0.00,,,0.00,,2013-01-02 02:02:00,
2013-01-01 21:12:00,40.0,32.0,29.94,NNE,15,0.0,6.0,72,0.00,,,0.00,,2013-01-02 02:12:00,
2013-01-01 21:22:00,39.0,31.0,29.95,North,352,0.0,1.0,73,0.00,,,0.00,,2013-01-02 02:22:00,
2013-01-01 21:32:00,39.0,31.0,29.95,North,351,0.0,3.0,73,0.00,,,0.00,,2013-01-02 02:32:00,
2013-01-01 21:42:00,39.0,31.0,29.95,North,351,0.0,3.0,73,0.00,,,0.00,,2013-01-02 02:42:00,
2013-01-01 21:53:00,39.0,31.0,29.96,North,352,0.0,3.0,74,0.00,,,0.00,,2013-01-02 02:53:00,
2013-01-01 22:02:00,39.0,31.0,29.96,North,359,0.0,3.0,74,0.00,,,0.00,,2013-01-02 03:02:00,
2013-01-01 22:12:00,39.0,31.0,29.96,North,359,0.0,3.0,74,0.00,,,0.00,,2013-01-02 03:12:00,
2013-01-01 22:22:00,39.0,31.0,29.97,NNW,344,1.0,3.0,74,0.00,,,0.00,,2013-01-02 03:22:00,
2013-01-01 22:32:00,39.0,32.0,29.96,NNW,344,0.0,1.0,75,0.00,,,0.00,,2013-01-02 03:32:00,
2013-01-01 22:42:00,39.0,32.0,29.96,NNW,344,0.0,1.0,75,0.00,,,0.00,,2013-01-02 03:42:00,
2013-01-01 22:53:00,39.0,31.0,29.97,NNW,332,0.0,4.0,74,0.00,,,0.00,,2013-01-02 03:53:00,
2013-01-01 23:02:00,39.0,32.0,29.96,North,357,0.0,2.0,75,0.00,,,0.00,,2013-01-02 04:02:00,
2013-01-01 23:12:00,39.0,32.0,29.96,North,357,0.0,2.0,75,0.00,,,0.00,,2013-01-02 04:12:00,
2013-01-01 23:22:00,38.0,31.0,29.96,NNW,329,0.0,1.0,75,0.00,,,0.00,,2013-01-02 04:22:00,
2013-01-01 23:32:00,38.0,31.0,29.96,NNW,336,0.0,3.0,75,0.00,,,0.00,,2013-01-02 04:32:00,
2013-01-01 23:42:00,38.0,31.0,29.96,NNW,336,0.0,3.0,75,0.00,,,0.00,,2013-01-02 04:42:00,
2013-01-01 23:53:00,38.0,31.0,29.98,North,360,0.0,1.0,75,0.00,,,0.00,,2013-01-02 04:53:00,